Flight Track Log - Related Links

Times and Time Zones

All times are in EST time to prevent confusion due to time zone crossing. See the N654JR flight status page for this flight to view local times or setup timezone preferences in your user account.


Time Position Orientation Groundspeed Altitude Reporting Facility
EST Latitude Longitude Course Direction KTS MPH feet Rate Location/Type
Mon 05:08:59 PM 32.9667 -96.8333 337° Northwest 87 100 900  Level Dallas / Fort Worth TRACON
Mon 05:10:05 PM 33.0000 -96.8500 337° Northwest 116 133 1,900 1,000 Climbing Dallas / Fort Worth TRACON
Mon 05:11:11 PM 33.0333 -96.8667 337° Northwest 116 133 3,100 1,000 Climbing Dallas / Fort Worth TRACON
Mon 05:12:11 PM 33.0667 -96.8667 360° North 118 136 4,000 565 Climbing Dallas / Fort Worth TRACON
Mon 05:14:22 PM 33.1547 -96.8897 348° North 143 165 4,900 528 Climbing Fort Worth Center
Mon 05:15:24 PM 33.1881 -96.8961 351° North 128 147 5,700 774 Climbing Fort Worth Center
Mon 05:16:26 PM 33.2253 -96.9017 353° North 127 146 6,500 774 Climbing Fort Worth Center
Mon 05:17:28 PM 33.2606 -96.9067 353° North 127 146 7,300 726 Climbing Fort Worth Center
Mon 05:18:30 PM 33.2972 -96.9094 356° North 127 146 8,000 384 Climbing Fort Worth Center
Mon 05:19:33 PM 33.3442 -96.9111 358° North 153 176 8,100 576 Climbing Fort Worth Center
Mon 05:20:35 PM 33.3822 -96.9117 359° North 138 159 9,200 871 Climbing Fort Worth Center
Mon 05:21:37 PM 33.4142 -96.9139 357° North 117 135 9,900 774 Climbing Fort Worth Center
Mon 05:22:39 PM 33.4544 -96.9161 357° North 133 153 10,800 919 Climbing Fort Worth Center
Mon 05:23:41 PM 33.4847 -96.9172 358° North 115 132 11,800 968 Climbing Fort Worth Center
Mon 05:24:43 PM 33.5197 -96.9189 358° North 118 136 12,800 919 Climbing Fort Worth Center
Mon 05:25:45 PM 33.5519 -96.9206 358° North 119 137 13,700 912 Climbing Fort Worth Center
Mon 05:26:48 PM 33.5858 -96.9217 358° North 116 133 14,700 864 Climbing Fort Worth Center
Mon 05:27:50 PM 33.6178 -96.9233 358° North 115 132 15,500 871 Climbing Fort Worth Center
Mon 05:28:52 PM 33.6547 -96.9250 358° North 121 139 16,500 871 Climbing Fort Worth Center
Mon 05:29:54 PM 33.6900 -96.9261 358° North 126 145 17,300 629 Climbing Fort Worth Center
Mon 05:30:56 PM 33.7294 -96.9283 357° North 129 148 17,800 629 Climbing Fort Worth Center
Mon 05:31:58 PM 33.7658 -96.9297 358° North 131 151 18,600 774 Climbing Fort Worth Center
Mon 05:33:00 PM 33.8036 -96.9308 359° North 132 152 19,400 726 Climbing Fort Worth Center
Mon 05:34:02 PM 33.8389 -96.9344 355° North 136 157 20,100 823 Climbing Fort Worth Center
Mon 05:35:04 PM 33.8856 -96.9372 357° North 138 159 21,100 768 Climbing Fort Worth Center
Mon 05:36:07 PM 33.9258 -96.9378 359° North 143 165 21,700 624 Climbing Fort Worth Center
Mon 05:37:09 PM 33.9669 -96.9400 357° North 147 169 22,400 629 Climbing Fort Worth Center
Mon 05:38:11 PM 34.0086 -96.9417 358° North 148 170 23,000 629 Climbing Fort Worth Center
Mon 05:39:13 PM 34.0531 -96.9431 359° North 155 178 23,700 484 Climbing Fort Worth Center
Mon 05:40:15 PM 34.1025 -96.9444 359° North 163 188 24,000 145 Climbing Fort Worth Center
Mon 05:41:17 PM 34.1583 -96.9461 359° North 194 223 24,000  Level Fort Worth Center
Mon 05:42:19 PM 34.2172 -96.9492 358° North 209 241 24,000  Level Fort Worth Center
Mon 05:43:21 PM 34.2878 -96.9525 358° North 210 242 24,000  Level Fort Worth Center
Mon 05:44:24 PM 34.3464 -96.9553 358° North 210 242 24,000  Level Fort Worth Center
Mon 05:45:26 PM 34.4047 -96.9572 358° North 210 242 24,000  Level Fort Worth Center
Mon 05:46:28 PM 34.4631 -96.9603 358° North 210 242 24,000  Level Fort Worth Center
Mon 05:47:30 PM 34.5206 -96.9625 358° North 209 241 24,000  Level Fort Worth Center
Mon 05:48:32 PM 34.5778 -96.9658 357° North 209 241 24,000  Level Fort Worth Center
Mon 05:49:34 PM 34.6461 -96.9706 357° North 208 239 24,000  Level Fort Worth Center
Mon 05:50:36 PM 34.7031 -96.9725 358° North 208 239 24,000  Level Fort Worth Center
Mon 05:51:38 PM 34.7594 -96.9742 359° North 205 236 24,000  Level Fort Worth Center
Mon 05:52:40 PM 34.8169 -96.9769 358° North 205 236 24,000  Level Fort Worth Center
Mon 05:53:43 PM 34.8731 -96.9822 356° North 205 236 24,000  Level Fort Worth Center
Mon 05:54:45 PM 34.9419 -96.9850 358° North 205 236 24,000  Level Fort Worth Center
Mon 05:55:47 PM 35.0003 -96.9883 357° North 206 237 24,000  Level Fort Worth Center
Mon 05:56:49 PM 35.0608 -96.9889 360° North 210 242 24,000  Level Fort Worth Center
Mon 05:57:51 PM 35.1203 -96.9922 357° North 212 244 24,000  Level Fort Worth Center
Mon 05:58:53 PM 35.1783 -96.9964 357° North 212 244 24,000  Level Fort Worth Center
Mon 05:59:55 PM 35.2378 -96.9989 358° North 212 244 24,000  Level Fort Worth Center
Mon 06:00:57 PM 35.3083 -97.0017 358° North 213 245 24,000  Level Fort Worth Center
Mon 06:01:59 PM 35.3672 -97.0039 358° North 213 245 24,000  Level Fort Worth Center
Mon 06:03:01 PM 35.4256 -97.0067 358° North 212 244 24,000  Level Fort Worth Center
Mon 06:04:03 PM 35.4842 -97.0094 358° North 212 244 24,000  Level Fort Worth Center
Mon 06:05:05 PM 35.5431 -97.0122 358° North 212 244 24,000  Level Fort Worth Center
Mon 06:06:07 PM 35.6128 -97.0153 358° North 212 244 24,000 -242 Level Fort Worth Center
Mon 06:07:09 PM 35.6711 -97.0192 357° North 211 243 23,500 -629 Descending Fort Worth Center
Mon 06:08:11 PM 35.7367 -97.0217 358° North 231 266 22,700 -823 Descending Fort Worth Center
Mon 06:09:13 PM 35.8031 -97.0256 357° North 236 272 21,800 -726 Descending Fort Worth Center
Mon 06:10:15 PM 35.8672 -97.0289 358° North 236 272 21,200 -677 Descending Fort Worth Center
Mon 06:11:17 PM 35.9419 -97.0322 358° North 227 261 20,400 -726 Descending Fort Worth Center
Mon 06:12:19 PM 36.0028 -97.0347 358° North 221 254 19,700 -677 Descending Fort Worth Center
Mon 06:13:21 PM 36.0639 -97.0378 358° North 221 254 19,000 -629 Descending Fort Worth Center
Mon 06:14:23 PM 36.1253 -97.0406 358° North 221 254 18,400 -629 Descending Fort Worth Center
Mon 06:15:25 PM 36.1850 -97.0428 358° North 218 251 17,700 -435 Descending Fort Worth Center
Mon 06:16:27 PM 36.2439 -97.0464 357° North 214 246 17,500 -484 Descending Fort Worth Center
Mon 06:17:29 PM 36.3139 -97.0508 357° North 211 243 16,700 -677 Descending Fort Worth Center
Mon 06:18:31 PM 36.3708 -97.0544 357° North 209 241 16,100 -556 Descending Fort Worth Center
Mon 06:20:00 PM 36.4469 -97.0561 359° North 201 231 15,300 -556 Descending Kansas City Center
Mon 06:21:02 PM 36.5008 -97.0589 358° North 199 229 14,700 -629 Descending Kansas City Center
Mon 06:22:04 PM 36.5628 -97.0606 359° North 190 219 14,000 -581 Descending Kansas City Center
Mon 06:23:06 PM 36.6167 -97.0639 357° North 189 217 13,500 -532 Descending Kansas City Center
Mon 06:24:08 PM 36.6667 -97.0742 351° North 184 212 12,900 -532 Descending Kansas City Center
Mon 06:25:10 PM 36.7119 -97.0933 341° North 184 212 12,400 -484 Descending Kansas City Center
Mon 06:26:12 PM 36.7592 -97.1092 345° North 180 207 11,900 -585 Descending Kansas City Center
Mon 06:27:13 PM 36.8069 -97.1258 344° North 180 207 11,200 -780 Descending Kansas City Center
Mon 06:28:15 PM 36.8592 -97.1444 344° North 180 207 10,300 -823 Descending Kansas City Center
Mon 06:29:17 PM 36.9083 -97.1625 344° North 181 208 9,500 -774 Descending Kansas City Center
Mon 06:30:19 PM 36.9569 -97.1808 343° North 181 208 8,700 -917 Descending Kansas City Center
Mon 06:30:29 PM 36.9714 -97.1872 341° North 186 214 8,400 -871 Descending Kansas City Center
Mon 06:31:21 PM 37.0164 -97.2019 345° North 183 211 7,800 -885 Descending Kansas City Center
Mon 06:31:30 PM 37.0256 -97.2047 346° North 186 214 7,500 -774 Descending Kansas City Center
Mon 06:32:23 PM 37.0664 -97.2192 344° North 183 211 7,000 -800 Descending Kansas City Center
Mon 06:32:30 PM 37.0742 -97.2261 325° Northwest 187 215 6,700 -568 Descending Kansas City Center
Mon 06:33:37 PM 37.1283 -97.2439 345° North 184 212 6,300 -310 Descending Kansas City Center
Mon 06:34:26 PM 37.1639 -97.2542 347° North 183 211 6,100 -436 Descending Kansas City Center
Mon 06:34:32 PM 37.1722 -97.2606 329° Northwest 179 206 5,900 -387 Descending Kansas City Center
Mon 06:35:28 PM 37.2119 -97.2722 347° North 182 209 5,700 -400 Descending Kansas City Center
Mon 06:35:32 PM 37.2200 -97.2769 335° Northwest 180 207 5,500 -387 Descending Kansas City Center
Mon 06:36:30 PM 37.2606 -97.2900 346° North 182 209 5,300 -393 Descending Kansas City Center
Mon 06:36:33 PM 37.2681 -97.2958 328° Northwest 184 212 5,100 -667 Descending Kansas City Center
Mon 06:37:33 PM 37.3183 -97.3142 344° North 187 215 4,600 -450 Descending Kansas City Center
Mon 06:38:33 PM 37.3700 -97.3297 347° North 183 211 4,200 -492 Descending Kansas City Center
Mon 06:38:34 PM 37.3683 -97.3303 195° South 186 214 4,100 -194 Descending Kansas City Center
Mon 06:39:35 PM 37.4217 -97.3403 352° North 180 207 4,000 -50 Descending Kansas City Center
Mon 06:40:35 PM 37.4686 -97.3461 354° North 170 196 4,000 97 Level Kansas City Center
Mon 06:40:37 PM 37.4678 -97.3433 111° Southeast 178 205 4,100  Climbing Kansas City Center
Mon 06:41:42 PM 37.5172 -97.3492 355° North 161 185 4,000  Descending Kansas City Center
Mon 06:42:41 PM 37.5589 -97.3486 North 164 189 4,100 -200 Climbing Kansas City Center
Mon 06:42:42 PM 37.5617 -97.3528 310° West 159 183 3,800 -787 Descending Kansas City Center
Mon 06:43:42 PM 37.6003 -97.3719 339° North 161 185 3,300 -787 Descending Kansas City Center
Mon 06:43:43 PM 37.6061 -97.3775 323° Northwest 177 204 3,000 -677 Descending Kansas City Center
Mon 06:44:44 PM 37.6550 -97.3717 North 164 189 2,600 -545 Descending Kansas City Center
Mon 06:45:44 PM 37.6775 -97.3983 317° Northwest 107 123 1,900 -677 Descending Kansas City Center
Mon 06:45:46 PM 37.6778 -97.3964 80° East 134 154 1,900 -448 Level Kansas City Center
Mon 06:46:51 PM 37.6625 -97.4164 226° Southwest 67 77 1,400 -462 Descending Kansas City Center

Login

Don't have an account? Register now (free) for customized features, flight alerts, and more!